Time;durP1;ratioP1;P1;durP2;ratioP2;P2;SDS_P1;SDS_P2;PMS_P1;PMS_P2;Temp;Humidity;BMP_temperature;BMP_pressure;BME280_temperature;BME280_humidity;BME280_pressure;Samples;Min_cycle;Max_cycle;Signal;HPM_P1;HPM_P2
2022/01/20 00:01:43;;;;;;;2.30;0.82;;;4.30;99.90;;;;;;5010419;28;20441;-80
2022/01/20 00:04:39;;;;;;;5.07;1.38;;;4.00;99.90;;;;;;4963667;28;20043;-80
2022/01/20 00:23:11;;;;;;;5.28;1.30;;;3.90;99.90;;;;;;5013994;28;20122;-81
2022/01/20 00:23:14;;;;;;;4.50;1.48;;;3.90;99.90;;;;;;5055508;28;20042;-80
2022/01/20 00:25:47;;;;;;;8.20;1.83;;;4.00;99.90;;;;;;4971697;28;20499;-79
2022/01/20 00:26:20;;;;;;;1.00;1.00;;;4.10;99.90;;;;;;4973830;28;20058;-80
2022/01/20 00:28:50;;;;;;;4.00;1.08;;;3.80;99.90;;;;;;4980981;28;20047;-79
2022/01/20 00:31:39;;;;;;;2.17;1.63;;;4.10;99.90;;;;;;5051569;28;20096;-79
2022/01/20 00:34:18;;;;;;;1.20;1.08;;;3.80;99.90;;;;;;4971196;28;20043;-79
2022/01/20 00:39:29;;;;;;;5.25;1.40;;;3.90;99.90;;;;;;4963081;28;20042;-80
2022/01/20 00:41:56;;;;;;;8.20;1.42;;;4.00;99.90;;;;;;5071720;28;20482;-79
2022/01/20 00:44:22;;;;;;;1.25;1.15;;;4.60;99.90;;;;;;4985852;28;20087;-81
2022/01/20 00:46:48;;;;;;;2.10;1.27;;;4.70;99.90;;;;;;5046589;28;20051;-80
2022/01/20 00:49:14;;;;;;;1.25;1.15;;;4.20;99.90;;;;;;4969034;28;20046;-80
2022/01/20 00:51:41;;;;;;;;;;;3.90;99.90;;;;;;5003651;28;20047;-77
2022/01/20 00:54:07;;;;;;;4.22;1.33;;;3.90;99.90;;;;;;4971325;28;19936;-78
2022/01/20 00:56:33;;;;;;;0.77;0.77;;;4.00;99.90;;;;;;5072319;28;20047;-77
2022/01/20 00:58:58;;;;;;;1.20;1.00;;;4.10;99.90;;;;;;4971304;28;20030;-80
2022/01/20 01:01:25;;;;;;;1.02;1.02;;;4.50;99.90;;;;;;4954774;28;20374;-81
2022/01/20 01:03:50;;;;;;;3.55;1.90;;;4.50;99.90;;;;;;4966800;28;20044;-81
2022/01/20 01:08:42;;;;;;;0.63;0.63;;;4.20;99.90;;;;;;5056367;28;20049;-82
2022/01/20 01:11:08;;;;;;;1.00;1.00;;;4.10;99.90;;;;;;4971070;28;20093;-81
2022/01/20 01:13:33;;;;;;;;;;;4.40;99.90;;;;;;4952815;28;20498;-81
2022/01/20 01:15:59;;;;;;;0.88;0.88;;;3.60;99.90;;;;;;4970500;28;19976;-81
2022/01/20 01:21:28;;;;;;;2.65;0.82;;;;;;;;;;5003820;28;20145;-78
2022/01/20 01:23:55;;;;;;;1.25;1.02;;;;;;;;;;4968074;28;20051;-79
2022/01/20 01:26:24;;;;;;;0.68;0.68;;;;;;;;;;4949015;28;20096;-80
2022/01/20 01:28:51;;;;;;;2.33;1.08;;;;;;;;;;5039170;28;20047;-82
2022/01/20 01:33:58;;;;;;;0.80;0.80;;;3.80;99.90;;;;;;4968510;28;19918;-79
2022/01/20 01:36:26;;;;;;;1.23;1.13;;;3.80;99.90;;;;;;4970888;28;20408;-79
2022/01/20 01:38:52;;;;;;;2.80;1.27;;;3.90;99.90;;;;;;5001386;28;20078;-79
2022/01/20 01:41:27;;;;;;;;;;;3.60;99.90;;;;;;4954886;28;20050;-79
2022/01/20 01:43:54;;;;;;;1.20;1.10;;;3.40;99.90;;;;;;4987459;28;20019;-78
2022/01/20 01:46:20;;;;;;;0.70;0.70;;;4.00;99.90;;;;;;4985797;28;20042;-80
2022/01/20 01:48:45;;;;;;;11.20;1.70;;;4.10;99.90;;;;;;4967177;28;20121;-81
2022/01/20 01:51:12;;;;;;;1.00;1.00;;;3.80;99.90;;;;;;4969930;28;20172;-80
2022/01/20 01:53:39;;;;;;;1.00;1.00;;;4.00;99.90;;;;;;4973322;28;20092;-80
2022/01/20 01:56:05;;;;;;;0.75;0.75;;;4.20;99.90;;;;;;4966807;28;20097;-81
2022/01/20 01:58:32;;;;;;;0.70;0.70;;;3.60;99.90;;;;;;4988447;28;20383;-81
2022/01/20 02:00:58;;;;;;;7.13;1.30;;;4.00;99.90;;;;;;4954531;28;20086;-79
2022/01/20 02:03:24;;;;;;;;;;;3.40;99.90;;;;;;4970797;28;20096;-80
2022/01/20 02:19:16;;;;;;;1.00;0.98;;;4.50;99.90;;;;;;5002090;28;20055;-78
2022/01/20 02:22:01;;;;;;;0.70;0.70;;;4.30;99.90;;;;;;4989800;28;20059;-82
2022/01/20 02:24:27;;;;;;;0.77;0.77;;;3.80;99.90;;;;;;4961322;28;20039;-81
2022/01/20 02:26:53;;;;;;;1.00;0.90;;;4.10;99.90;;;;;;4968543;28;20046;-79
2022/01/20 02:29:19;;;;;;;5.75;1.48;;;3.90;99.90;;;;;;4967975;28;20138;-79
2022/01/20 02:31:45;;;;;;;9.68;1.67;;;3.20;99.90;;;;;;4969598;28;20049;-80
2022/01/20 02:34:13;;;;;;;2.03;1.83;;;3.70;99.90;;;;;;4978396;28;20047;-79
2022/01/20 02:36:42;;;;;;;20.88;1.45;;;3.30;99.90;;;;;;5000678;28;20477;-78
2022/01/20 02:39:25;;;;;;;5.63;1.50;;;3.60;99.90;;;;;;5051568;28;20057;-78
2022/01/20 02:44:54;;;;;;;1.38;1.05;;;3.90;99.90;;;;;;4968855;28;20053;-78
2022/01/20 02:47:23;;;;;;;2.15;1.38;;;4.30;99.90;;;;;;5002581;28;20111;-80
2022/01/20 02:49:49;;;;;;;1.20;1.00;;;3.60;99.90;;;;;;4993505;28;20353;-80
2022/01/20 02:52:15;;;;;;;1.17;0.90;;;3.60;99.90;;;;;;5037264;28;20043;-80
2022/01/20 02:54:41;;;;;;;4.03;1.88;;;3.90;99.90;;;;;;4969043;28;20077;-79
2022/01/20 02:57:07;;;;;;;;;;;3.90;99.90;;;;;;4969773;28;20035;-78
2022/01/20 02:59:36;;;;;;;1.65;1.27;;;4.30;99.90;;;;;;4994594;28;20320;-77
2022/01/20 03:02:03;;;;;;;8.23;1.05;;;4.70;99.90;;;;;;5048353;28;20053;-80
2022/01/20 03:04:30;;;;;;;1.33;1.23;;;4.10;99.90;;;;;;4968636;28;20126;-79
2022/01/20 03:06:57;;;;;;;2.75;1.35;;;4.20;99.90;;;;;;4952843;28;20050;-79
2022/01/20 03:09:22;;;;;;;13.02;2.72;;;4.30;99.90;;;;;;4969613;28;20138;-79
2022/01/20 03:11:49;;;;;;;10.88;2.33;;;4.10;99.90;;;;;;4970891;28;20129;-79
2022/01/20 03:14:17;;;;;;;2.90;1.92;;;3.90;99.90;;;;;;4966936;28;20051;-79
2022/01/20 03:16:44;;;;;;;6.03;1.60;;;3.80;99.90;;;;;;4984471;28;20063;-81
2022/01/20 03:19:12;;;;;;;2.90;1.63;;;4.20;99.90;;;;;;5003824;28;20042;-79
2022/01/20 03:21:39;;;;;;;2.35;1.65;;;3.60;99.90;;;;;;4968571;28;20152;-81
2022/01/20 03:24:05;;;;;;;4.90;1.73;;;3.70;99.90;;;;;;5052608;28;20043;-78
2022/01/20 03:26:31;;;;;;;3.13;1.65;;;3.30;99.90;;;;;;5052136;28;20057;-81
2022/01/20 03:28:57;;;;;;;5.15;1.70;;;3.80;99.90;;;;;;4996700;28;20043;-80
2022/01/20 03:31:25;;;;;;;8.20;1.40;;;3.70;99.90;;;;;;5052344;28;20031;-79
2022/01/20 03:33:51;;;;;;;6.25;1.30;;;3.70;99.90;;;;;;4982016;28;20104;-80
2022/01/20 03:36:16;;;;;;;2.58;1.23;;;4.10;99.90;;;;;;5049037;28;20043;-79
2022/01/20 03:38:42;;;;;;;3.67;1.00;;;3.60;99.90;;;;;;4968457;28;20446;-79
2022/01/20 03:41:08;;;;;;;2.78;1.67;;;4.30;99.90;;;;;;4971606;28;20069;-82
2022/01/20 03:43:33;;;;;;;1.67;1.20;;;4.30;99.90;;;;;;4968914;28;20039;-80
2022/01/20 03:46:01;;;;;;;6.40;1.52;;;4.20;99.90;;;;;;4979646;28;20091;-81
2022/01/20 03:48:28;;;;;;;4.55;1.27;;;4.40;99.90;;;;;;4994670;28;20054;-80
2022/01/20 03:51:02;;;;;;;3.38;1.63;;;3.30;99.90;;;;;;5057580;28;20133;-82
2022/01/20 03:53:29;;;;;;;6.20;1.20;;;;;;;;;;4973830;28;20049;-80
2022/01/20 03:55:56;;;;;;;1.88;1.45;;;;;;;;;;5039678;28;20035;-82
2022/01/20 03:58:22;;;;;;;1.83;1.23;;;;;;;;;;4972353;28;20133;-81
2022/01/20 04:00:48;;;;;;;2.08;1.92;;;;;;;;;;5056504;28;20039;-79
2022/01/20 04:03:14;;;;;;;;;;;3.40;99.90;;;;;;4972078;28;20039;-79
2022/01/20 04:05:54;;;;;;;1.23;0.88;;;3.80;99.90;;;;;;4975450;28;19918;-79
2022/01/20 04:08:20;;;;;;;0.95;0.95;;;;;;;;;;4948896;28;20120;-81
2022/01/20 04:10:46;;;;;;;;;;;;;;;;;;5056793;28;20047;-80
2022/01/20 04:13:14;;;;;;;6.43;2.13;;;;;;;;;;5004701;28;19918;-81
2022/01/20 04:15:41;;;;;;;4.45;2.67;;;;;;;;;;4979019;28;20069;-80
2022/01/20 04:18:13;;;;;;;9.68;1.73;;;;;;;;;;5001671;28;20074;-80
2022/01/20 04:20:40;;;;;;;3.20;1.08;;;;;;;;;;5001874;28;20169;-80
2022/01/20 04:23:07;;;;;;;0.90;0.90;;;;;;;;;;4971550;28;20042;-81
2022/01/20 04:25:33;;;;;;;1.35;1.25;;;;;;;;;;5056357;28;20074;-80
2022/01/20 04:27:59;;;;;;;4.03;1.63;;;;;;;;;;4971201;28;20050;-80
2022/01/20 04:30:25;;;;;;;4.15;1.30;;;;;;;;;;4967694;28;20081;-80
2022/01/20 04:32:51;;;;;;;3.55;1.48;;;;;;;;;;4971134;28;20122;-81
2022/01/20 04:35:20;;;;;;;2.35;1.50;;;;;;;;;;5063771;28;20050;-80
2022/01/20 04:37:48;;;;;;;2.17;1.52;;;;;;;;;;4971428;28;20039;-80
2022/01/20 04:40:14;;;;;;;3.15;2.00;;;;;;;;;;4967797;28;20034;-82
2022/01/20 04:42:43;;;;;;;3.03;1.35;;;;;;;;;;4984060;28;20042;-82
2022/01/20 04:45:12;;;;;;;9.07;1.23;;;3.20;99.90;;;;;;4974903;28;20405;-81
2022/01/20 04:58:22;;;;;;;2.47;1.42;;;2.80;99.90;;;;;;4960600;28;20468;-80
2022/01/20 05:00:48;;;;;;;2.70;1.55;;;2.70;99.90;;;;;;4976091;28;20040;-79
2022/01/20 05:03:14;;;;;;;1.52;1.42;;;2.70;99.90;;;;;;4970438;28;20123;-82
2022/01/20 05:05:39;;;;;;;;;;;2.90;99.90;;;;;;4986676;28;20149;-80
2022/01/20 05:08:05;;;;;;;2.00;1.20;;;2.90;99.90;;;;;;4969873;28;20012;-82
2022/01/20 05:10:33;;;;;;;3.50;1.58;;;2.80;99.90;;;;;;4953259;28;20101;-81
2022/01/20 05:13:06;;;;;;;4.38;1.17;;;2.70;99.90;;;;;;4986663;28;20034;-78
2022/01/20 05:15:33;;;;;;;1.23;1.15;;;2.70;99.90;;;;;;4970401;28;20086;-82
2022/01/20 05:18:00;;;;;;;1.50;1.17;;;2.50;99.90;;;;;;4967959;28;20054;-78
2022/01/20 05:20:26;;;;;;;7.43;1.08;;;2.40;99.90;;;;;;4995656;28;20423;-80
2022/01/20 05:22:51;;;;;;;0.80;0.80;;;1.50;99.90;;;;;;4970328;28;20062;-79
2022/01/20 05:25:17;;;;;;;0.95;0.95;;;2.20;99.90;;;;;;5055101;28;20097;-81
2022/01/20 05:27:43;;;;;;;1.30;1.15;;;2.10;99.90;;;;;;4970992;28;20054;-79
2022/01/20 05:30:10;;;;;;;4.68;1.58;;;2.10;99.90;;;;;;4978262;28;20163;-79
2022/01/20 05:32:36;;;;;;;2.60;1.35;;;2.00;99.90;;;;;;4954841;28;20062;-79
2022/01/20 05:35:01;;;;;;;5.00;1.45;;;2.00;99.90;;;;;;4954422;28;20038;-82
2022/01/20 05:37:27;;;;;;;5.38;1.55;;;2.00;99.90;;;;;;4950972;28;20108;-81
2022/01/20 05:39:53;;;;;;;1.30;1.20;;;2.00;99.90;;;;;;4976852;28;20047;-79
2022/01/20 05:42:18;;;;;;;5.03;2.78;;;2.10;99.90;;;;;;5034530;28;20406;-79
2022/01/20 05:44:49;;;;;;;5.00;1.70;;;2.10;99.90;;;;;;4976186;28;20042;-78
2022/01/20 05:47:18;;;;;;;1.13;1.10;;;2.20;99.90;;;;;;4990382;28;20488;-78
2022/01/20 05:49:43;;;;;;;2.38;1.52;;;2.20;99.90;;;;;;4974135;28;20054;-80
2022/01/20 05:52:09;;;;;;;1.63;1.30;;;2.30;99.90;;;;;;4970909;28;20047;-81
2022/01/20 05:54:35;;;;;;;0.85;0.85;;;2.30;99.90;;;;;;4970574;28;20449;-82
2022/01/20 05:57:00;;;;;;;2.55;1.10;;;2.20;99.90;;;;;;5022199;28;20043;-80
2022/01/20 05:59:26;;;;;;;4.88;1.45;;;2.40;99.90;;;;;;4971266;28;20051;-79
2022/01/20 06:01:55;;;;;;;10.20;2.00;;;2.50;99.90;;;;;;4971460;28;20042;-81
2022/01/20 06:04:21;;;;;;;1.52;1.42;;;2.70;99.90;;;;;;4954777;28;20043;-79
2022/01/20 06:06:47;;;;;;;4.25;2.10;;;2.70;99.90;;;;;;4967175;28;20058;-79
2022/01/20 06:09:13;;;;;;;1.40;1.27;;;2.80;99.90;;;;;;4985721;28;20120;-79
2022/01/20 06:11:39;;;;;;;4.38;1.88;;;2.80;99.90;;;;;;4969247;28;20097;-79
2022/01/20 06:14:05;;;;;;;14.88;1.52;;;2.80;99.90;;;;;;4960480;28;20047;-79
2022/01/20 06:16:35;;;;;;;3.50;1.73;;;2.90;99.90;;;;;;4982927;28;20195;-79
2022/01/20 06:19:01;;;;;;;5.95;1.65;;;2.90;99.90;;;;;;4989478;28;20074;-80
2022/01/20 06:21:28;;;;;;;1.27;1.17;;;3.30;99.90;;;;;;4970301;28;20077;-81
2022/01/20 06:23:53;;;;;;;3.58;2.63;;;3.00;99.90;;;;;;4969870;28;20054;-79
2022/01/20 06:26:19;;;;;;;1.90;1.80;;;2.90;99.90;;;;;;4986005;28;20047;-81
2022/01/20 06:28:45;;;;;;;2.08;1.48;;;2.90;99.90;;;;;;4978952;28;20051;-82
2022/01/20 06:31:11;;;;;;;1.95;1.38;;;2.90;99.90;;;;;;4956543;28;20035;-82
2022/01/20 06:33:37;;;;;;;12.75;1.50;;;2.50;99.90;;;;;;4971006;28;20050;-83
2022/01/20 06:36:02;;;;;;;1.08;0.98;;;2.20;99.90;;;;;;5055272;28;20107;-83
2022/01/20 06:38:28;;;;;;;;;;;2.00;99.90;;;;;;4975997;28;20078;-81
2022/01/20 06:40:54;;;;;;;5.53;1.45;;;1.90;99.90;;;;;;5005204;28;19965;-82
2022/01/20 06:43:20;;;;;;;1.75;1.33;;;1.80;99.90;;;;;;4989962;28;20043;-79
2022/01/20 06:45:46;;;;;;;;;;;1.70;99.90;;;;;;4974271;28;20408;-81
2022/01/20 06:48:11;;;;;;;1.60;1.17;;;1.80;99.90;;;;;;4989058;28;19925;-81
2022/01/20 06:50:38;;;;;;;1.05;1.00;;;1.70;99.90;;;;;;4970386;28;20085;-80
2022/01/20 06:53:04;;;;;;;1.00;1.00;;;1.80;99.90;;;;;;4970901;28;20179;-82
2022/01/20 06:55:29;;;;;;;1.38;1.27;;;1.80;99.90;;;;;;4969745;28;20043;-81
2022/01/20 06:57:56;;;;;;;2.63;1.42;;;1.80;99.90;;;;;;5023550;28;20412;-80
2022/01/20 07:00:23;;;;;;;1.30;1.20;;;1.70;99.90;;;;;;4969274;28;20031;-81
2022/01/20 07:02:50;;;;;;;6.28;1.15;;;1.70;99.90;;;;;;4989106;28;20085;-81
2022/01/20 07:05:17;;;;;;;0.93;0.93;;;1.80;99.90;;;;;;4996440;28;20126;-81
2022/01/20 07:07:43;;;;;;;3.50;1.05;;;1.80;99.90;;;;;;4987618;28;20043;-82
2022/01/20 07:10:11;;;;;;;3.63;1.73;;;1.90;99.90;;;;;;4990780;28;20092;-81
2022/01/20 07:12:36;;;;;;;2.17;1.08;;;2.20;99.90;;;;;;5003414;28;20071;-80
2022/01/20 07:15:03;;;;;;;2.08;1.90;;;2.00;99.90;;;;;;5052926;28;20054;-81
2022/01/20 07:17:28;;;;;;;1.52;1.23;;;2.10;99.90;;;;;;5000816;28;20134;-80
2022/01/20 07:19:54;;;;;;;1.00;0.98;;;2.20;99.90;;;;;;4963354;28;20138;-80
2022/01/20 07:22:20;;;;;;;3.78;1.42;;;2.30;99.90;;;;;;4968621;28;20043;-80
2022/01/20 07:24:47;;;;;;;7.22;1.10;;;2.30;99.90;;;;;;4968742;28;20532;-79
2022/01/20 07:27:14;;;;;;;1.00;0.90;;;2.30;99.90;;;;;;4968694;28;20134;-81
2022/01/20 07:29:39;;;;;;;0.95;0.95;;;2.30;99.90;;;;;;5000996;28;20059;-81
2022/01/20 07:32:06;;;;;;;1.40;1.02;;;2.20;99.90;;;;;;5035884;28;20054;-81
2022/01/20 07:34:33;;;;;;;3.63;1.20;;;2.20;99.90;;;;;;5034911;28;20055;-80
2022/01/20 07:37:00;;;;;;;2.92;1.42;;;2.10;99.90;;;;;;5000614;28;20054;-80
2022/01/20 07:39:26;;;;;;;1.85;1.67;;;2.10;99.90;;;;;;5001082;28;20039;-81
2022/01/20 07:41:52;;;;;;;1.05;1.00;;;2.10;99.90;;;;;;5001590;28;20077;-81
2022/01/20 07:44:19;;;;;;;3.40;1.75;;;2.10;99.90;;;;;;4984896;28;20484;-80
2022/01/20 07:46:46;;;;;;;1.05;0.98;;;2.20;99.90;;;;;;4968556;28;20047;-82
2022/01/20 07:49:11;;;;;;;2.67;1.75;;;2.10;99.90;;;;;;5000557;28;20043;-81
2022/01/20 07:51:37;;;;;;;1.60;1.20;;;1.90;99.90;;;;;;4968801;28;20046;-80
2022/01/20 07:54:03;;;;;;;7.63;1.67;;;1.70;99.90;;;;;;4967712;28;20078;-79
2022/01/20 07:56:29;;;;;;;;;;;1.50;99.90;;;;;;4945430;28;20097;-80
2022/01/20 07:58:55;;;;;;;2.95;1.20;;;1.40;99.90;;;;;;4995753;28;19918;-80
2022/01/20 08:01:24;;;;;;;4.47;1.67;;;1.40;99.90;;;;;;4983225;28;20484;-79
2022/01/20 08:03:52;;;;;;;1.08;1.02;;;1.40;99.90;;;;;;4969692;28;20081;-79
2022/01/20 08:06:19;;;;;;;1.30;1.20;;;1.50;99.90;;;;;;4952460;28;20058;-79
2022/01/20 08:08:46;;;;;;;1.33;1.23;;;1.50;99.90;;;;;;5053443;28;20514;-80
2022/01/20 08:11:13;;;;;;;3.08;1.67;;;1.50;99.90;;;;;;4968023;28;20051;-79
2022/01/20 08:13:38;;;;;;;3.17;2.08;;;1.50;99.90;;;;;;5035957;28;20497;-79
2022/01/20 08:16:04;;;;;;;8.10;2.25;;;1.50;99.90;;;;;;4969652;28;20130;-79
2022/01/20 08:18:30;;;;;;;1.70;1.00;;;1.60;99.90;;;;;;4987736;28;21452;-79
2022/01/20 08:20:56;;;;;;;5.50;2.00;;;1.70;99.90;;;;;;5036254;28;20043;-78
2022/01/20 08:23:22;;;;;;;0.90;0.90;;;1.90;99.90;;;;;;5014399;28;20051;-79
2022/01/20 08:25:48;;;;;;;1.55;1.02;;;2.00;99.90;;;;;;4968270;28;20126;-79
2022/01/20 08:28:14;;;;;;;3.10;1.63;;;2.20;99.90;;;;;;4968394;28;20050;-80
2022/01/20 08:30:41;;;;;;;1.10;1.10;;;2.30;99.90;;;;;;4971022;28;20086;-79
2022/01/20 08:33:07;;;;;;;2.00;1.27;;;2.60;99.90;;;;;;5053605;28;20111;-81
2022/01/20 08:35:33;;;;;;;1.63;1.52;;;2.40;99.90;;;;;;4972019;28;20077;-79
2022/01/20 08:38:03;;;;;;;3.33;1.60;;;2.50;99.90;;;;;;4970467;28;20484;-79
2022/01/20 08:40:29;;;;;;;6.40;1.10;;;2.60;99.90;;;;;;4987376;28;20500;-81
2022/01/20 08:42:56;;;;;;;1.67;1.38;;;3.20;99.90;;;;;;4944172;28;20126;-80
2022/01/20 08:45:25;;;;;;;1.27;1.17;;;3.00;99.90;;;;;;4989660;28;20063;-80
2022/01/20 08:47:54;;;;;;;1.88;1.45;;;3.10;99.90;;;;;;4989463;28;20536;-82
2022/01/20 08:50:21;;;;;;;1.30;1.08;;;3.10;99.90;;;;;;4971464;28;20046;-82
2022/01/20 08:52:47;;;;;;;4.07;1.38;;;2.70;99.90;;;;;;4990009;28;20065;-84
2022/01/20 08:55:13;;;;;;;1.45;1.35;;;2.20;99.90;;;;;;4988041;28;20388;-82
2022/01/20 08:57:39;;;;;;;5.93;1.50;;;1.90;99.90;;;;;;4968919;28;20077;-81
2022/01/20 09:00:07;;;;;;;0.95;0.95;;;1.80;99.90;;;;;;4996688;28;20043;-80
2022/01/20 09:02:33;;;;;;;0.80;0.80;;;1.70;99.90;;;;;;5004504;28;20053;-82
2022/01/20 09:04:59;;;;;;;2.45;1.48;;;1.60;99.90;;;;;;4987379;28;20043;-81
2022/01/20 09:07:25;;;;;;;1.55;1.45;;;1.50;99.90;;;;;;5004142;28;20082;-81
2022/01/20 09:09:51;;;;;;;0.90;0.90;;;1.50;99.90;;;;;;4971569;28;20536;-81
2022/01/20 09:15:27;;;;;;;2.15;1.20;;;1.50;99.90;;;;;;4987256;28;20047;-81
2022/01/20 09:15:28;;;;;;;3.47;1.27;;;1.70;99.90;;;;;;4970546;28;20043;-81
2022/01/20 09:18:07;;;;;;;2.35;1.30;;;1.80;99.90;;;;;;4954844;28;20477;-83
2022/01/20 09:20:34;;;;;;;2.00;1.30;;;1.60;99.90;;;;;;4965007;28;20125;-85
2022/01/20 09:23:02;;;;;;;1.00;1.00;;;1.50;99.90;;;;;;5003730;28;20496;-82
2022/01/20 09:25:28;;;;;;;1.45;1.35;;;1.40;99.90;;;;;;4968746;28;20074;-81
2022/01/20 09:27:55;;;;;;;9.85;1.65;;;1.30;99.90;;;;;;4971023;28;20496;-81
2022/01/20 09:30:23;;;;;;;4.03;2.03;;;1.80;99.90;;;;;;4970952;28;20054;-80
2022/01/20 09:33:10;;;;;;;1.30;1.20;;;1.20;99.90;;;;;;4955099;28;20078;-80
2022/01/20 09:35:37;;;;;;;2.10;1.27;;;1.30;99.90;;;;;;4954984;28;20047;-81
2022/01/20 09:38:04;;;;;;;1.52;1.42;;;1.40;99.90;;;;;;4973930;28;20038;-81
2022/01/20 09:40:32;;;;;;;3.53;1.58;;;1.60;99.90;;;;;;4971459;28;20031;-80
2022/01/20 09:42:58;;;;;;;5.82;2.83;;;1.60;99.90;;;;;;4970753;28;20043;-82
2022/01/20 09:45:25;;;;;;;2.88;1.60;;;1.80;99.90;;;;;;4970795;28;20123;-78
2022/01/20 09:47:51;;;;;;;3.00;1.75;;;2.00;99.90;;;;;;4971602;28;20126;-81
2022/01/20 09:50:19;;;;;;;2.00;1.50;;;2.30;99.90;;;;;;4982266;28;20146;-79
2022/01/20 09:52:50;;;;;;;4.70;2.20;;;2.40;99.90;;;;;;4971850;28;20503;-79
2022/01/20 09:55:18;;;;;;;1.42;1.23;;;2.50;99.90;;;;;;5002603;28;20062;-80
2022/01/20 09:57:43;;;;;;;6.45;1.42;;;2.90;99.90;;;;;;4999532;28;20058;-80
2022/01/20 10:00:16;;;;;;;3.88;1.50;;;2.70;99.90;;;;;;4946116;28;20049;-82
2022/01/20 10:02:58;;;;;;;4.13;1.48;;;2.40;99.90;;;;;;4954708;28;20360;-79
2022/01/20 10:05:35;;;;;;;4.32;1.80;;;2.40;99.90;;;;;;5002704;28;20050;-80
2022/01/20 10:08:21;;;;;;;4.80;0.93;;;2.60;99.90;;;;;;4985868;28;20468;-78
2022/01/20 10:10:50;;;;;;;3.17;0.97;;;2.70;99.90;;;;;;4953964;28;20050;-81
2022/01/20 10:13:22;;;;;;;1.63;1.48;;;2.80;99.90;;;;;;5002957;28;20042;-80
2022/01/20 10:16:02;;;;;;;4.18;1.80;;;2.80;99.90;;;;;;5055542;28;20074;-78
2022/01/20 10:18:29;;;;;;;7.15;1.85;;;2.80;99.90;;;;;;5055422;28;20050;-78
2022/01/20 10:21:04;;;;;;;2.50;1.85;;;2.80;99.90;;;;;;4994662;28;20043;-81
2022/01/20 10:23:32;;;;;;;1.58;1.45;;;2.70;99.90;;;;;;4969755;28;20085;-80
2022/01/20 10:26:11;;;;;;;1.52;1.15;;;2.70;99.90;;;;;;5003332;28;20499;-79
2022/01/20 10:29:05;;;;;;;5.65;2.53;;;2.60;99.90;;;;;;4970267;28;20065;-79
2022/01/20 10:31:31;;;;;;;3.22;1.73;;;2.70;99.90;;;;;;4970584;28;20128;-79
2022/01/20 10:33:57;;;;;;;1.40;0.90;;;2.80;99.90;;;;;;4981791;28;20444;-79
2022/01/20 10:36:23;;;;;;;2.50;1.48;;;2.90;99.90;;;;;;4975158;28;20047;-80
2022/01/20 10:38:53;;;;;;;2.92;2.05;;;2.90;99.90;;;;;;5014279;28;20440;-79
2022/01/20 10:41:56;;;;;;;0.98;0.80;;;3.00;99.90;;;;;;4971473;28;20077;-80
2022/01/20 10:44:23;;;;;;;8.50;1.27;;;3.10;99.90;;;;;;4966273;28;20059;-80
2022/01/20 10:46:55;;;;;;;1.42;1.10;;;3.50;99.90;;;;;;4950502;29;20077;-79
2022/01/20 10:49:27;;;;;;;5.32;1.17;;;3.10;99.90;;;;;;5051477;28;20042;-78
2022/01/20 10:52:13;;;;;;;0.80;0.80;;;3.00;99.90;;;;;;4968970;28;20153;-78
2022/01/20 10:54:43;;;;;;;6.43;1.33;;;2.80;99.90;;;;;;4969544;28;20092;-81
2022/01/20 10:57:11;;;;;;;1.05;0.93;;;2.80;99.90;;;;;;4968468;28;20046;-81
2022/01/20 10:59:48;;;;;;;4.93;1.15;;;2.80;99.90;;;;;;4985625;28;20065;-79
2022/01/20 11:02:16;;;;;;;2.95;1.48;;;2.80;99.90;;;;;;4971043;28;20047;-78
2022/01/20 11:04:41;;;;;;;4.53;1.33;;;3.00;99.90;;;;;;5056555;28;20059;-79
2022/01/20 11:07:09;;;;;;;2.17;1.08;;;3.10;99.90;;;;;;5034288;28;20058;-80
2022/01/20 11:09:39;;;;;;;10.55;2.22;;;3.10;99.90;;;;;;4969555;28;20050;-79
2022/01/20 11:12:05;;;;;;;1.80;1.17;;;3.20;99.90;;;;;;4983868;28;20051;-79
2022/01/20 11:14:34;;;;;;;4.72;1.25;;;3.20;99.90;;;;;;4968872;28;20047;-78
2022/01/20 11:17:03;;;;;;;5.90;2.05;;;3.30;99.90;;;;;;4956615;28;20055;-79
2022/01/20 11:19:36;;;;;;;3.63;1.23;;;3.20;99.90;;;;;;4968831;28;20479;-80
2022/01/20 11:22:11;;;;;;;1.75;1.38;;;3.20;99.90;;;;;;4969232;28;20449;-80
2022/01/20 11:24:38;;;;;;;2.17;1.30;;;3.00;99.90;;;;;;4972258;28;20055;-79
2022/01/20 11:27:06;;;;;;;2.05;1.08;;;3.00;99.90;;;;;;4974320;28;20043;-79
2022/01/20 11:29:45;;;;;;;3.22;1.73;;;3.10;99.90;;;;;;4969552;28;20112;-79
2022/01/20 11:32:26;;;;;;;1.88;1.35;;;3.20;99.90;;;;;;5036221;28;20059;-81
2022/01/20 11:35:05;;;;;;;11.48;2.08;;;3.40;99.90;;;;;;5059890;28;20049;-81
2022/01/20 11:37:42;;;;;;;1.58;1.48;;;3.70;99.90;;;;;;4985901;28;20046;-80
2022/01/20 11:40:26;;;;;;;8.68;2.25;;;3.70;99.90;;;;;;4975540;28;20189;-80
2022/01/20 11:42:57;;;;;;;3.78;1.88;;;3.80;99.90;;;;;;4966922;28;20046;-80
2022/01/20 11:45:38;;;;;;;10.65;3.03;;;3.60;99.90;;;;;;4979658;28;20047;-80
2022/01/20 11:48:21;;;;;;;0.73;0.73;;;3.50;99.90;;;;;;4969800;28;20035;-79
2022/01/20 11:51:07;;;;;;;0.93;0.90;;;3.30;99.90;;;;;;4967642;28;20057;-79
2022/01/20 11:53:40;;;;;;;1.42;1.23;;;3.20;99.90;;;;;;5053299;28;20122;-81
2022/01/20 11:56:07;;;;;;;7.18;1.95;;;3.20;99.90;;;;;;5017761;28;20066;-83
2022/01/20 11:58:33;;;;;;;5.10;1.98;;;3.10;99.90;;;;;;4952557;28;20054;-80
2022/01/20 12:01:09;;;;;;;4.63;2.60;;;3.70;99.90;;;;;;4969047;28;20046;-83
2022/01/20 12:03:37;;;;;;;1.30;1.20;;;3.60;99.90;;;;;;4968170;28;20091;-80
2022/01/20 12:06:08;;;;;;;1.08;1.02;;;3.40;99.90;;;;;;4998762;28;20127;-82
2022/01/20 12:08:34;;;;;;;1.23;1.13;;;3.20;99.90;;;;;;5009051;28;20778;-79
2022/01/20 12:11:04;;;;;;;1.02;1.02;;;3.00;99.90;;;;;;4977831;28;20189;-82
2022/01/20 12:13:31;;;;;;;1.23;0.95;;;2.90;99.90;;;;;;5008761;28;20176;-79
2022/01/20 12:16:01;;;;;;;2.63;1.55;;;2.90;99.90;;;;;;4973168;28;20133;-78
2022/01/20 12:18:29;;;;;;;6.10;2.00;;;2.90;99.90;;;;;;4984333;28;20071;-78
2022/01/20 12:21:01;;;;;;;2.70;1.70;;;3.00;99.90;;;;;;5032567;28;20038;-80
2022/01/20 12:23:27;;;;;;;0.90;0.90;;;3.20;99.90;;;;;;4973561;28;20150;-82
2022/01/20 12:26:02;;;;;;;4.32;2.35;;;3.60;99.90;;;;;;5005493;28;20112;-77
2022/01/20 12:28:28;;;;;;;5.05;1.10;;;3.70;99.90;;;;;;4982291;28;20172;-78
2022/01/20 12:31:03;;;;;;;6.13;1.70;;;3.80;99.90;;;;;;4979100;28;20078;-79
2022/01/20 12:33:32;;;;;;;4.65;1.20;;;3.80;99.90;;;;;;4994674;28;20047;-79
2022/01/20 12:36:04;;;;;;;0.77;0.77;;;3.70;99.90;;;;;;4996893;28;20056;-79
2022/01/20 12:38:36;;;;;;;1.65;0.95;;;3.90;99.90;;;;;;4973328;28;20121;-80
2022/01/20 12:41:22;;;;;;;3.00;1.77;;;3.90;99.90;;;;;;4960951;28;20039;-79
2022/01/20 12:43:53;;;;;;;3.05;1.35;;;4.00;99.90;;;;;;4971396;28;20084;-80
2022/01/20 12:46:28;;;;;;;3.13;1.27;;;4.10;99.90;;;;;;5042122;28;20050;-79
2022/01/20 12:49:00;;;;;;;3.30;1.40;;;4.30;99.90;;;;;;4972674;28;20035;-77
2022/01/20 12:51:37;;;;;;;5.53;1.60;;;4.20;99.90;;;;;;4995839;28;20524;-77
2022/01/20 12:54:10;;;;;;;2.05;1.08;;;4.30;99.90;;;;;;4973265;28;20045;-77
2022/01/20 12:56:38;;;;;;;1.33;0.90;;;4.40;99.90;;;;;;4989762;28;20561;-78
2022/01/20 12:59:05;;;;;;;9.63;1.30;;;4.50;99.90;;;;;;4999608;28;20043;-78
2022/01/20 13:01:42;;;;;;;3.45;1.33;;;4.50;99.90;;;;;;4972277;28;20074;-80
2022/01/20 13:04:11;;;;;;;5.05;1.58;;;4.60;99.90;;;;;;4961968;28;20464;-77
2022/01/20 13:06:45;;;;;;;7.57;1.83;;;4.70;99.90;;;;;;4984792;28;20047;-79
2022/01/20 13:09:12;;;;;;;1.55;1.45;;;4.80;99.90;;;;;;4973006;28;20073;-76
2022/01/20 13:11:59;;;;;;;2.05;1.30;;;4.10;99.90;;;;;;4974552;28;20543;-81
2022/01/20 13:14:44;;;;;;;0.80;0.80;;;3.70;99.90;;;;;;4973314;28;20043;-79
2022/01/20 13:17:24;;;;;;;2.85;1.02;;;3.30;99.90;;;;;;4978649;28;20053;-78
2022/01/20 13:19:52;;;;;;;2.05;1.00;;;3.10;99.90;;;;;;4986081;28;20053;-79
2022/01/20 13:22:43;;;;;;;0.85;0.75;;;3.00;99.90;;;;;;4973702;28;20413;-79
2022/01/20 13:25:16;;;;;;;0.70;0.70;;;3.00;99.90;;;;;;4992772;28;20101;-77
2022/01/20 13:28:04;;;;;;;0.95;0.95;;;3.10;99.90;;;;;;4987989;28;20434;-78
2022/01/20 13:30:39;;;;;;;2.33;1.30;;;3.20;99.90;;;;;;4995738;28;20057;-77
2022/01/20 13:33:12;;;;;;;5.72;1.33;;;3.40;99.90;;;;;;4968486;28;20097;-77
2022/01/20 13:35:40;;;;;;;1.92;0.95;;;3.60;99.90;;;;;;4966517;28;20051;-76
2022/01/20 13:38:08;;;;;;;1.55;1.20;;;3.60;99.90;;;;;;5039652;28;20038;-81
2022/01/20 13:40:37;;;;;;;3.05;1.23;;;3.50;99.90;;;;;;4970740;28;20480;-80
2022/01/20 13:46:04;;;;;;;6.38;1.05;;;3.20;99.90;;;;;;4968123;28;20458;-78
2022/01/20 13:48:32;;;;;;;0.93;0.93;;;3.20;99.90;;;;;;4979422;28;20043;-80
2022/01/20 13:51:00;;;;;;;1.30;1.00;;;3.30;99.90;;;;;;5054802;28;20079;-77
2022/01/20 13:53:28;;;;;;;1.20;1.00;;;3.40;99.90;;;;;;4959353;28;20096;-78
2022/01/20 13:55:57;;;;;;;1.38;1.20;;;3.50;99.90;;;;;;4979097;28;20796;-80
2022/01/20 13:58:26;;;;;;;1.90;1.75;;;3.60;99.90;;;;;;4994479;28;20039;-79
2022/01/20 14:00:54;;;;;;;13.65;2.17;;;3.70;99.90;;;;;;4994167;28;20102;-80
2022/01/20 14:03:21;;;;;;;1.85;1.30;;;3.80;99.90;;;;;;4962875;28;20043;-78
2022/01/20 14:05:49;;;;;;;12.55;1.63;;;3.70;99.90;;;;;;4994285;28;20058;-80
2022/01/20 14:08:15;;;;;;;1.80;1.40;;;3.70;99.90;;;;;;4969700;28;20140;-79